sensor_id;sensor_type;location;lat;lon;timestamp;P1;durP1;ratioP1;P2;durP2;ratioP2
13973;SDS011;7060;43.770;4.008;2023-09-19T00:02:24;0.93;;;0.20;;
13973;SDS011;7060;43.770;4.008;2023-09-19T00:04:53;0.35;;;0.30;;
13973;SDS011;7060;43.770;4.008;2023-09-19T00:09:58;0.30;;;0.22;;
13973;SDS011;7060;43.770;4.008;2023-09-19T00:12:30;1.05;;;0.30;;
13973;SDS011;7060;43.770;4.008;2023-09-19T00:15:01;1.75;;;0.45;;
13973;SDS011;7060;43.770;4.008;2023-09-19T00:17:33;2.75;;;0.22;;
13973;SDS011;7060;43.770;4.008;2023-09-19T00:20:08;0.85;;;0.20;;
13973;SDS011;7060;43.770;4.008;2023-09-19T00:25:15;1.05;;;0.25;;
13973;SDS011;7060;43.770;4.008;2023-09-19T00:27:46;0.63;;;0.17;;
13973;SDS011;7060;43.770;4.008;2023-09-19T00:30:19;3.38;;;0.40;;
13973;SDS011;7060;43.770;4.008;2023-09-19T00:32:55;1.30;;;0.40;;
13973;SDS011;7060;43.770;4.008;2023-09-19T00:35:26;0.63;;;0.30;;
13973;SDS011;7060;43.770;4.008;2023-09-19T00:37:55;2.05;;;0.30;;
13973;SDS011;7060;43.770;4.008;2023-09-19T00:40:24;3.20;;;0.32;;
13973;SDS011;7060;43.770;4.008;2023-09-19T00:43:03;0.98;;;0.30;;
13973;SDS011;7060;43.770;4.008;2023-09-19T00:45:32;2.65;;;0.50;;
13973;SDS011;7060;43.770;4.008;2023-09-19T00:48:07;1.08;;;0.40;;
13973;SDS011;7060;43.770;4.008;2023-09-19T00:50:47;1.30;;;0.30;;
13973;SDS011;7060;43.770;4.008;2023-09-19T00:53:20;2.55;;;0.60;;
13973;SDS011;7060;43.770;4.008;2023-09-19T00:55:54;1.65;;;0.30;;
13973;SDS011;7060;43.770;4.008;2023-09-19T00:58:26;0.40;;;0.20;;
13973;SDS011;7060;43.770;4.008;2023-09-19T01:01:01;3.53;;;0.40;;
13973;SDS011;7060;43.770;4.008;2023-09-19T01:03:36;0.73;;;0.23;;
13973;SDS011;7060;43.770;4.008;2023-09-19T01:08:47;1.07;;;0.40;;
13973;SDS011;7060;43.770;4.008;2023-09-19T01:11:31;0.90;;;0.20;;
13973;SDS011;7060;43.770;4.008;2023-09-19T01:14:13;0.90;;;0.20;;
13973;SDS011;7060;43.770;4.008;2023-09-19T01:17:00;0.33;;;0.20;;
13973;SDS011;7060;43.770;4.008;2023-09-19T01:19:43;1.60;;;0.23;;
13973;SDS011;7060;43.770;4.008;2023-09-19T01:28:32;1.13;;;0.40;;
13973;SDS011;7060;43.770;4.008;2023-09-19T01:31:10;2.03;;;0.37;;
13973;SDS011;7060;43.770;4.008;2023-09-19T01:33:57;1.33;;;0.43;;
13973;SDS011;7060;43.770;4.008;2023-09-19T01:36:29;0.80;;;0.30;;
13973;SDS011;7060;43.770;4.008;2023-09-19T01:39:04;1.70;;;0.40;;
13973;SDS011;7060;43.770;4.008;2023-09-19T01:44:36;0.73;;;0.30;;
13973;SDS011;7060;43.770;4.008;2023-09-19T01:47:17;1.47;;;0.30;;
13973;SDS011;7060;43.770;4.008;2023-09-19T01:49:55;3.17;;;0.33;;
13973;SDS011;7060;43.770;4.008;2023-09-19T01:52:31;0.80;;;0.30;;
13973;SDS011;7060;43.770;4.008;2023-09-19T01:55:13;2.47;;;0.40;;
13973;SDS011;7060;43.770;4.008;2023-09-19T01:57:49;0.50;;;0.20;;
13973;SDS011;7060;43.770;4.008;2023-09-19T02:03:05;0.87;;;0.27;;
13973;SDS011;7060;43.770;4.008;2023-09-19T02:05:38;1.10;;;0.40;;
13973;SDS011;7060;43.770;4.008;2023-09-19T02:08:08;1.50;;;0.60;;
13973;SDS011;7060;43.770;4.008;2023-09-19T02:10:38;0.90;;;0.30;;
13973;SDS011;7060;43.770;4.008;2023-09-19T02:13:09;1.07;;;0.40;;
13973;SDS011;7060;43.770;4.008;2023-09-19T02:18:16;1.63;;;0.50;;
13973;SDS011;7060;43.770;4.008;2023-09-19T02:20:54;0.63;;;0.20;;
13973;SDS011;7060;43.770;4.008;2023-09-19T02:23:26;2.13;;;0.40;;
13973;SDS011;7060;43.770;4.008;2023-09-19T02:25:58;2.30;;;0.40;;
13973;SDS011;7060;43.770;4.008;2023-09-19T02:28:29;1.30;;;0.30;;
13973;SDS011;7060;43.770;4.008;2023-09-19T02:33:35;2.70;;;0.40;;
13973;SDS011;7060;43.770;4.008;2023-09-19T02:36:10;3.27;;;0.50;;
13973;SDS011;7060;43.770;4.008;2023-09-19T02:38:46;1.57;;;0.40;;
13973;SDS011;7060;43.770;4.008;2023-09-19T02:41:16;0.60;;;0.40;;
13973;SDS011;7060;43.770;4.008;2023-09-19T02:43:46;2.23;;;0.50;;
13973;SDS011;7060;43.770;4.008;2023-09-19T02:46:17;2.37;;;0.40;;
13973;SDS011;7060;43.770;4.008;2023-09-19T02:48:49;1.87;;;0.37;;
13973;SDS011;7060;43.770;4.008;2023-09-19T02:51:20;2.33;;;0.40;;
13973;SDS011;7060;43.770;4.008;2023-09-19T02:56:23;1.37;;;0.50;;
13973;SDS011;7060;43.770;4.008;2023-09-19T02:58:53;1.10;;;0.40;;
13973;SDS011;7060;43.770;4.008;2023-09-19T03:01:24;0.80;;;0.37;;
13973;SDS011;7060;43.770;4.008;2023-09-19T03:04:04;1.57;;;0.40;;
13973;SDS011;7060;43.770;4.008;2023-09-19T03:06:39;0.60;;;0.40;;
13973;SDS011;7060;43.770;4.008;2023-09-19T03:09:09;1.03;;;0.43;;
13973;SDS011;7060;43.770;4.008;2023-09-19T03:11:40;1.70;;;0.50;;
13973;SDS011;7060;43.770;4.008;2023-09-19T03:14:24;4.30;;;0.40;;
13973;SDS011;7060;43.770;4.008;2023-09-19T03:16:59;1.83;;;0.60;;
13973;SDS011;7060;43.770;4.008;2023-09-19T03:19:33;1.17;;;0.33;;
13973;SDS011;7060;43.770;4.008;2023-09-19T03:22:05;3.47;;;0.50;;
13973;SDS011;7060;43.770;4.008;2023-09-19T03:24:35;1.67;;;0.40;;
13973;SDS011;7060;43.770;4.008;2023-09-19T03:27:06;1.07;;;0.50;;
13973;SDS011;7060;43.770;4.008;2023-09-19T03:29:38;1.43;;;0.53;;
13973;SDS011;7060;43.770;4.008;2023-09-19T03:32:07;0.73;;;0.50;;
13973;SDS011;7060;43.770;4.008;2023-09-19T03:34:40;3.13;;;0.33;;
13973;SDS011;7060;43.770;4.008;2023-09-19T03:37:13;0.90;;;0.40;;
13973;SDS011;7060;43.770;4.008;2023-09-19T03:39:47;0.77;;;0.50;;
13973;SDS011;7060;43.770;4.008;2023-09-19T03:42:20;0.80;;;0.30;;
13973;SDS011;7060;43.770;4.008;2023-09-19T03:44:53;1.07;;;0.47;;
13973;SDS011;7060;43.770;4.008;2023-09-19T03:47:24;2.77;;;0.53;;
13973;SDS011;7060;43.770;4.008;2023-09-19T03:52:32;2.50;;;0.40;;
13973;SDS011;7060;43.770;4.008;2023-09-19T03:55:03;0.60;;;0.40;;
13973;SDS011;7060;43.770;4.008;2023-09-19T03:57:33;2.67;;;0.67;;
13973;SDS011;7060;43.770;4.008;2023-09-19T04:00:03;2.53;;;0.40;;
13973;SDS011;7060;43.770;4.008;2023-09-19T04:02:39;1.93;;;0.50;;
13973;SDS011;7060;43.770;4.008;2023-09-19T04:05:11;1.63;;;0.50;;
13973;SDS011;7060;43.770;4.008;2023-09-19T04:07:40;3.03;;;0.70;;
13973;SDS011;7060;43.770;4.008;2023-09-19T04:10:09;1.37;;;0.50;;
13973;SDS011;7060;43.770;4.008;2023-09-19T04:12:50;1.53;;;0.60;;
13973;SDS011;7060;43.770;4.008;2023-09-19T04:15:21;1.23;;;0.47;;
13973;SDS011;7060;43.770;4.008;2023-09-19T04:17:54;0.93;;;0.30;;
13973;SDS011;7060;43.770;4.008;2023-09-19T04:20:25;2.87;;;0.50;;
13973;SDS011;7060;43.770;4.008;2023-09-19T04:22:54;1.53;;;0.50;;
13973;SDS011;7060;43.770;4.008;2023-09-19T04:25:24;1.37;;;0.40;;
13973;SDS011;7060;43.770;4.008;2023-09-19T04:27:54;2.97;;;0.53;;
13973;SDS011;7060;43.770;4.008;2023-09-19T04:30:24;1.93;;;0.40;;
13973;SDS011;7060;43.770;4.008;2023-09-19T04:32:53;3.13;;;0.50;;
13973;SDS011;7060;43.770;4.008;2023-09-19T04:35:22;0.90;;;0.37;;
13973;SDS011;7060;43.770;4.008;2023-09-19T04:37:57;1.60;;;0.50;;
13973;SDS011;7060;43.770;4.008;2023-09-19T04:40:27;2.27;;;0.70;;
13973;SDS011;7060;43.770;4.008;2023-09-19T04:42:58;2.53;;;0.77;;
13973;SDS011;7060;43.770;4.008;2023-09-19T04:45:27;1.90;;;0.57;;
13973;SDS011;7060;43.770;4.008;2023-09-19T04:47:58;2.83;;;0.60;;
13973;SDS011;7060;43.770;4.008;2023-09-19T04:50:28;3.77;;;0.80;;
13973;SDS011;7060;43.770;4.008;2023-09-19T04:52:59;2.63;;;1.20;;
13973;SDS011;7060;43.770;4.008;2023-09-19T04:55:30;3.50;;;0.70;;
13973;SDS011;7060;43.770;4.008;2023-09-19T04:58:00;1.10;;;0.50;;
13973;SDS011;7060;43.770;4.008;2023-09-19T05:00:29;2.03;;;0.70;;
13973;SDS011;7060;43.770;4.008;2023-09-19T05:03:02;1.63;;;0.60;;
13973;SDS011;7060;43.770;4.008;2023-09-19T05:05:33;3.40;;;0.80;;
13973;SDS011;7060;43.770;4.008;2023-09-19T05:08:06;2.27;;;0.70;;
13973;SDS011;7060;43.770;4.008;2023-09-19T05:10:37;1.20;;;0.50;;
13973;SDS011;7060;43.770;4.008;2023-09-19T05:13:06;3.07;;;0.87;;
13973;SDS011;7060;43.770;4.008;2023-09-19T05:15:35;3.20;;;0.70;;
13973;SDS011;7060;43.770;4.008;2023-09-19T05:18:06;1.47;;;0.50;;
13973;SDS011;7060;43.770;4.008;2023-09-19T05:20:38;1.53;;;0.80;;
13973;SDS011;7060;43.770;4.008;2023-09-19T05:23:12;4.37;;;1.13;;
13973;SDS011;7060;43.770;4.008;2023-09-19T05:25:43;6.57;;;0.87;;
13973;SDS011;7060;43.770;4.008;2023-09-19T05:28:18;2.23;;;0.80;;
13973;SDS011;7060;43.770;4.008;2023-09-19T05:30:48;1.80;;;0.63;;
13973;SDS011;7060;43.770;4.008;2023-09-19T05:33:17;1.63;;;0.63;;
13973;SDS011;7060;43.770;4.008;2023-09-19T05:36:00;1.63;;;0.77;;
13973;SDS011;7060;43.770;4.008;2023-09-19T05:38:31;2.40;;;0.70;;
13973;SDS011;7060;43.770;4.008;2023-09-19T05:41:00;3.20;;;0.80;;
13973;SDS011;7060;43.770;4.008;2023-09-19T05:43:29;1.50;;;0.50;;
13973;SDS011;7060;43.770;4.008;2023-09-19T05:45:59;2.07;;;0.80;;
13973;SDS011;7060;43.770;4.008;2023-09-19T05:48:28;1.63;;;0.60;;
13973;SDS011;7060;43.770;4.008;2023-09-19T05:50:57;3.53;;;0.70;;
13973;SDS011;7060;43.770;4.008;2023-09-19T05:53:26;3.27;;;1.00;;
13973;SDS011;7060;43.770;4.008;2023-09-19T05:55:57;1.60;;;0.60;;
13973;SDS011;7060;43.770;4.008;2023-09-19T05:58:28;5.70;;;2.33;;
13973;SDS011;7060;43.770;4.008;2023-09-19T06:00:58;2.27;;;0.70;;
13973;SDS011;7060;43.770;4.008;2023-09-19T06:03:27;2.07;;;0.70;;
13973;SDS011;7060;43.770;4.008;2023-09-19T06:05:57;1.00;;;0.50;;
13973;SDS011;7060;43.770;4.008;2023-09-19T06:08:26;3.47;;;0.87;;
13973;SDS011;7060;43.770;4.008;2023-09-19T06:10:56;2.97;;;0.80;;
13973;SDS011;7060;43.770;4.008;2023-09-19T06:13:27;3.03;;;0.77;;
13973;SDS011;7060;43.770;4.008;2023-09-19T06:15:56;1.87;;;0.70;;
13973;SDS011;7060;43.770;4.008;2023-09-19T06:18:25;4.50;;;1.00;;
13973;SDS011;7060;43.770;4.008;2023-09-19T06:20:56;2.13;;;0.90;;
13973;SDS011;7060;43.770;4.008;2023-09-19T06:23:25;2.80;;;0.80;;
13973;SDS011;7060;43.770;4.008;2023-09-19T06:25:57;4.97;;;1.10;;
13973;SDS011;7060;43.770;4.008;2023-09-19T06:28:26;3.97;;;0.80;;
13973;SDS011;7060;43.770;4.008;2023-09-19T06:30:55;2.83;;;0.80;;
13973;SDS011;7060;43.770;4.008;2023-09-19T06:33:24;4.37;;;1.00;;
13973;SDS011;7060;43.770;4.008;2023-09-19T06:35:53;2.80;;;1.30;;
13973;SDS011;7060;43.770;4.008;2023-09-19T06:38:26;2.43;;;1.03;;
13973;SDS011;7060;43.770;4.008;2023-09-19T06:40:55;2.97;;;0.67;;
13973;SDS011;7060;43.770;4.008;2023-09-19T06:43:25;2.60;;;0.67;;
13973;SDS011;7060;43.770;4.008;2023-09-19T06:45:55;2.00;;;0.80;;
13973;SDS011;7060;43.770;4.008;2023-09-19T06:48:24;1.97;;;0.70;;
13973;SDS011;7060;43.770;4.008;2023-09-19T06:50:53;2.97;;;0.70;;
13973;SDS011;7060;43.770;4.008;2023-09-19T06:53:23;6.83;;;1.10;;
13973;SDS011;7060;43.770;4.008;2023-09-19T06:55:52;24.60;;;2.27;;
13973;SDS011;7060;43.770;4.008;2023-09-19T06:58:21;16.97;;;1.90;;
13973;SDS011;7060;43.770;4.008;2023-09-19T07:00:52;4.43;;;0.90;;
13973;SDS011;7060;43.770;4.008;2023-09-19T07:03:21;6.20;;;0.80;;
13973;SDS011;7060;43.770;4.008;2023-09-19T07:05:53;2.23;;;0.90;;
13973;SDS011;7060;43.770;4.008;2023-09-19T07:08:23;3.43;;;1.10;;
13973;SDS011;7060;43.770;4.008;2023-09-19T07:10:52;5.83;;;0.87;;
13973;SDS011;7060;43.770;4.008;2023-09-19T07:13:22;1.43;;;0.70;;
13973;SDS011;7060;43.770;4.008;2023-09-19T07:15:53;2.87;;;0.90;;
13973;SDS011;7060;43.770;4.008;2023-09-19T07:18:23;3.63;;;0.70;;
13973;SDS011;7060;43.770;4.008;2023-09-19T07:20:56;2.17;;;0.80;;
13973;SDS011;7060;43.770;4.008;2023-09-19T07:23:28;4.37;;;0.90;;
13973;SDS011;7060;43.770;4.008;2023-09-19T07:25:57;2.53;;;0.70;;
13973;SDS011;7060;43.770;4.008;2023-09-19T07:28:27;6.00;;;1.00;;
13973;SDS011;7060;43.770;4.008;2023-09-19T07:30:58;1.50;;;0.60;;
13973;SDS011;7060;43.770;4.008;2023-09-19T07:33:30;3.00;;;0.85;;
13973;SDS011;7060;43.770;4.008;2023-09-19T07:36:00;2.17;;;0.80;;
13973;SDS011;7060;43.770;4.008;2023-09-19T07:38:29;3.05;;;0.90;;
13973;SDS011;7060;43.770;4.008;2023-09-19T07:41:00;2.00;;;0.50;;
13973;SDS011;7060;43.770;4.008;2023-09-19T07:43:29;4.93;;;0.97;;
13973;SDS011;7060;43.770;4.008;2023-09-19T07:46:03;1.30;;;0.50;;
13973;SDS011;7060;43.770;4.008;2023-09-19T07:48:34;2.53;;;0.40;;
13973;SDS011;7060;43.770;4.008;2023-09-19T07:51:04;2.15;;;0.47;;
13973;SDS011;7060;43.770;4.008;2023-09-19T07:53:35;1.25;;;0.43;;
13973;SDS011;7060;43.770;4.008;2023-09-19T07:56:05;2.22;;;0.50;;
13973;SDS011;7060;43.770;4.008;2023-09-19T07:58:35;1.75;;;0.40;;
13973;SDS011;7060;43.770;4.008;2023-09-19T08:01:13;0.75;;;0.30;;
13973;SDS011;7060;43.770;4.008;2023-09-19T08:03:43;2.65;;;0.77;;
13973;SDS011;7060;43.770;4.008;2023-09-19T08:06:12;1.35;;;0.40;;
13973;SDS011;7060;43.770;4.008;2023-09-19T08:08:41;2.38;;;0.60;;
13973;SDS011;7060;43.770;4.008;2023-09-19T08:11:10;1.75;;;0.40;;
13973;SDS011;7060;43.770;4.008;2023-09-19T08:13:40;1.25;;;0.30;;
13973;SDS011;7060;43.770;4.008;2023-09-19T08:16:13;1.20;;;0.47;;
13973;SDS011;7060;43.770;4.008;2023-09-19T08:18:42;1.83;;;0.50;;
13973;SDS011;7060;43.770;4.008;2023-09-19T08:21:11;2.60;;;0.60;;
13973;SDS011;7060;43.770;4.008;2023-09-19T08:23:44;0.82;;;0.40;;
13973;SDS011;7060;43.770;4.008;2023-09-19T08:26:13;2.70;;;0.52;;
13973;SDS011;7060;43.770;4.008;2023-09-19T08:28:42;1.90;;;0.63;;
13973;SDS011;7060;43.770;4.008;2023-09-19T08:31:13;1.92;;;0.40;;
13973;SDS011;7060;43.770;4.008;2023-09-19T08:33:44;1.52;;;0.50;;
13973;SDS011;7060;43.770;4.008;2023-09-19T08:36:15;0.95;;;0.40;;
13973;SDS011;7060;43.770;4.008;2023-09-19T08:38:45;2.20;;;0.63;;
13973;SDS011;7060;43.770;4.008;2023-09-19T08:41:13;2.92;;;0.40;;
13973;SDS011;7060;43.770;4.008;2023-09-19T08:43:46;1.77;;;0.45;;
13973;SDS011;7060;43.770;4.008;2023-09-19T08:46:17;0.20;;;0.20;;
13973;SDS011;7060;43.770;4.008;2023-09-19T08:48:50;1.17;;;0.63;;
13973;SDS011;7060;43.770;4.008;2023-09-19T08:51:26;1.45;;;0.32;;
13973;SDS011;7060;43.770;4.008;2023-09-19T08:53:59;1.50;;;0.40;;
13973;SDS011;7060;43.770;4.008;2023-09-19T08:56:34;1.15;;;0.32;;
13973;SDS011;7060;43.770;4.008;2023-09-19T08:59:06;0.65;;;0.40;;
13973;SDS011;7060;43.770;4.008;2023-09-19T09:01:37;0.43;;;0.30;;
13973;SDS011;7060;43.770;4.008;2023-09-19T09:04:09;1.23;;;0.60;;
13973;SDS011;7060;43.770;4.008;2023-09-19T09:06:41;1.77;;;0.40;;
13973;SDS011;7060;43.770;4.008;2023-09-19T09:09:12;0.80;;;0.50;;
13973;SDS011;7060;43.770;4.008;2023-09-19T09:11:41;0.85;;;0.40;;
13973;SDS011;7060;43.770;4.008;2023-09-19T09:14:10;1.42;;;0.85;;
13973;SDS011;7060;43.770;4.008;2023-09-19T09:16:41;1.15;;;0.50;;
13973;SDS011;7060;43.770;4.008;2023-09-19T09:19:11;0.90;;;0.30;;
13973;SDS011;7060;43.770;4.008;2023-09-19T09:21:39;2.10;;;0.40;;
13973;SDS011;7060;43.770;4.008;2023-09-19T09:24:27;1.67;;;0.40;;
13973;SDS011;7060;43.770;4.008;2023-09-19T09:26:57;1.05;;;0.30;;
13973;SDS011;7060;43.770;4.008;2023-09-19T09:29:42;3.25;;;0.50;;
13973;SDS011;7060;43.770;4.008;2023-09-19T09:32:20;0.82;;;0.40;;
13973;SDS011;7060;43.770;4.008;2023-09-19T09:34:52;2.10;;;0.50;;
13973;SDS011;7060;43.770;4.008;2023-09-19T09:37:26;0.93;;;0.40;;
13973;SDS011;7060;43.770;4.008;2023-09-19T09:39:58;0.73;;;0.40;;
13973;SDS011;7060;43.770;4.008;2023-09-19T09:42:46;0.73;;;0.30;;
13973;SDS011;7060;43.770;4.008;2023-09-19T09:45:19;0.68;;;0.30;;
13973;SDS011;7060;43.770;4.008;2023-09-19T09:47:57;0.75;;;0.30;;
13973;SDS011;7060;43.770;4.008;2023-09-19T09:50:31;1.48;;;0.50;;
13973;SDS011;7060;43.770;4.008;2023-09-19T09:56:02;1.38;;;0.60;;
13973;SDS011;7060;43.770;4.008;2023-09-19T09:58:34;2.30;;;0.60;;
13973;SDS011;7060;43.770;4.008;2023-09-19T10:01:04;1.73;;;0.60;;
13973;SDS011;7060;43.770;4.008;2023-09-19T10:03:39;1.75;;;0.50;;
13973;SDS011;7060;43.770;4.008;2023-09-19T10:06:12;0.70;;;0.30;;
13973;SDS011;7060;43.770;4.008;2023-09-19T10:09:02;0.85;;;0.40;;
13973;SDS011;7060;43.770;4.008;2023-09-19T10:11:42;0.90;;;0.40;;
13973;SDS011;7060;43.770;4.008;2023-09-19T10:14:13;0.50;;;0.30;;
13973;SDS011;7060;43.770;4.008;2023-09-19T10:16:45;1.55;;;0.40;;
13973;SDS011;7060;43.770;4.008;2023-09-19T10:19:21;0.70;;;0.40;;
13973;SDS011;7060;43.770;4.008;2023-09-19T10:21:57;2.00;;;0.50;;
13973;SDS011;7060;43.770;4.008;2023-09-19T10:24:28;1.52;;;0.60;;
13973;SDS011;7060;43.770;4.008;2023-09-19T10:26:59;1.33;;;0.40;;
13973;SDS011;7060;43.770;4.008;2023-09-19T10:29:31;1.27;;;0.40;;
13973;SDS011;7060;43.770;4.008;2023-09-19T10:32:03;0.47;;;0.22;;
13973;SDS011;7060;43.770;4.008;2023-09-19T10:34:37;2.60;;;0.50;;
13973;SDS011;7060;43.770;4.008;2023-09-19T10:37:10;0.68;;;0.40;;
13973;SDS011;7060;43.770;4.008;2023-09-19T10:39:42;0.88;;;0.32;;
13973;SDS011;7060;43.770;4.008;2023-09-19T10:42:16;1.00;;;0.30;;
13973;SDS011;7060;43.770;4.008;2023-09-19T10:44:50;1.52;;;0.50;;
13973;SDS011;7060;43.770;4.008;2023-09-19T10:47:23;1.50;;;0.50;;
13973;SDS011;7060;43.770;4.008;2023-09-19T10:49:53;0.75;;;0.38;;
13973;SDS011;7060;43.770;4.008;2023-09-19T10:52:23;3.15;;;0.70;;
13973;SDS011;7060;43.770;4.008;2023-09-19T10:54:56;1.35;;;0.40;;
13973;SDS011;7060;43.770;4.008;2023-09-19T10:57:28;1.67;;;0.52;;
13973;SDS011;7060;43.770;4.008;2023-09-19T11:00:02;0.75;;;0.30;;
13973;SDS011;7060;43.770;4.008;2023-09-19T11:06:05;1.55;;;0.50;;
13973;SDS011;7060;43.770;4.008;2023-09-19T11:08:56;1.27;;;0.57;;
13973;SDS011;7060;43.770;4.008;2023-09-19T11:11:50;1.75;;;0.50;;
13973;SDS011;7060;43.770;4.008;2023-09-19T11:20:22;1.25;;;0.60;;
13973;SDS011;7060;43.770;4.008;2023-09-19T11:23:23;1.52;;;0.50;;
13973;SDS011;7060;43.770;4.008;2023-09-19T11:25:55;0.70;;;0.38;;
13973;SDS011;7060;43.770;4.008;2023-09-19T11:28:28;2.80;;;0.50;;
13973;SDS011;7060;43.770;4.008;2023-09-19T11:30:58;1.38;;;0.70;;
13973;SDS011;7060;43.770;4.008;2023-09-19T11:33:27;0.55;;;0.50;;
13973;SDS011;7060;43.770;4.008;2023-09-19T11:35:58;0.98;;;0.40;;
13973;SDS011;7060;43.770;4.008;2023-09-19T11:41:38;1.25;;;0.60;;
13973;SDS011;7060;43.770;4.008;2023-09-19T11:47:05;1.05;;;0.60;;
13973;SDS011;7060;43.770;4.008;2023-09-19T11:49:36;1.52;;;0.50;;
13973;SDS011;7060;43.770;4.008;2023-09-19T11:52:09;1.05;;;0.50;;
13973;SDS011;7060;43.770;4.008;2023-09-19T11:54:42;1.33;;;0.60;;
13973;SDS011;7060;43.770;4.008;2023-09-19T11:57:14;1.85;;;0.60;;
13973;SDS011;7060;43.770;4.008;2023-09-19T11:59:49;1.65;;;0.52;;
13973;SDS011;7060;43.770;4.008;2023-09-19T12:02:27;0.93;;;0.45;;
13973;SDS011;7060;43.770;4.008;2023-09-19T12:05:08;0.93;;;0.50;;
13973;SDS011;7060;43.770;4.008;2023-09-19T12:07:42;1.75;;;0.60;;
13973;SDS011;7060;43.770;4.008;2023-09-19T12:10:17;1.38;;;0.50;;
13973;SDS011;7060;43.770;4.008;2023-09-19T12:12:49;1.45;;;0.77;;
13973;SDS011;7060;43.770;4.008;2023-09-19T12:15:22;1.08;;;0.50;;
13973;SDS011;7060;43.770;4.008;2023-09-19T12:17:55;0.70;;;0.50;;
13973;SDS011;7060;43.770;4.008;2023-09-19T12:20:39;1.23;;;0.50;;
13973;SDS011;7060;43.770;4.008;2023-09-19T12:23:16;1.73;;;0.80;;
13973;SDS011;7060;43.770;4.008;2023-09-19T12:25:48;1.42;;;0.50;;
13973;SDS011;7060;43.770;4.008;2023-09-19T12:28:20;1.02;;;0.50;;
13973;SDS011;7060;43.770;4.008;2023-09-19T12:30:50;1.73;;;0.55;;
13973;SDS011;7060;43.770;4.008;2023-09-19T12:33:22;0.85;;;0.60;;
13973;SDS011;7060;43.770;4.008;2023-09-19T12:35:53;0.68;;;0.50;;
13973;SDS011;7060;43.770;4.008;2023-09-19T12:38:22;2.10;;;0.70;;
13973;SDS011;7060;43.770;4.008;2023-09-19T12:40:53;1.48;;;0.57;;
13973;SDS011;7060;43.770;4.008;2023-09-19T12:43:26;1.20;;;0.57;;
13973;SDS011;7060;43.770;4.008;2023-09-19T12:45:59;1.38;;;0.60;;
13973;SDS011;7060;43.770;4.008;2023-09-19T12:48:29;1.30;;;0.57;;
13973;SDS011;7060;43.770;4.008;2023-09-19T12:51:02;1.73;;;0.60;;
13973;SDS011;7060;43.770;4.008;2023-09-19T12:53:33;0.70;;;0.50;;
13973;SDS011;7060;43.770;4.008;2023-09-19T12:56:09;2.08;;;0.60;;
13973;SDS011;7060;43.770;4.008;2023-09-19T12:58:51;2.75;;;0.60;;
13973;SDS011;7060;43.770;4.008;2023-09-19T13:01:22;2.75;;;0.90;;
13973;SDS011;7060;43.770;4.008;2023-09-19T13:04:11;1.05;;;0.60;;
13973;SDS011;7060;43.770;4.008;2023-09-19T13:06:42;1.23;;;0.60;;
13973;SDS011;7060;43.770;4.008;2023-09-19T13:09:11;1.15;;;0.65;;
13973;SDS011;7060;43.770;4.008;2023-09-19T13:11:43;1.60;;;0.70;;
13973;SDS011;7060;43.770;4.008;2023-09-19T13:14:16;0.80;;;0.50;;
13973;SDS011;7060;43.770;4.008;2023-09-19T13:16:57;1.30;;;0.70;;
13973;SDS011;7060;43.770;4.008;2023-09-19T13:19:35;1.05;;;0.55;;
13973;SDS011;7060;43.770;4.008;2023-09-19T13:25:09;1.08;;;0.65;;
13973;SDS011;7060;43.770;4.008;2023-09-19T13:27:43;0.90;;;0.60;;
13973;SDS011;7060;43.770;4.008;2023-09-19T13:30:12;1.90;;;0.80;;
13973;SDS011;7060;43.770;4.008;2023-09-19T13:32:41;1.60;;;0.60;;
13973;SDS011;7060;43.770;4.008;2023-09-19T13:35:11;1.70;;;0.60;;
13973;SDS011;7060;43.770;4.008;2023-09-19T13:37:42;0.88;;;0.57;;
13973;SDS011;7060;43.770;4.008;2023-09-19T13:40:13;2.50;;;1.05;;
13973;SDS011;7060;43.770;4.008;2023-09-19T13:42:45;1.13;;;0.60;;
13973;SDS011;7060;43.770;4.008;2023-09-19T13:45:15;1.67;;;0.77;;
13973;SDS011;7060;43.770;4.008;2023-09-19T13:47:45;4.25;;;0.82;;
13973;SDS011;7060;43.770;4.008;2023-09-19T13:50:14;2.03;;;0.68;;
13973;SDS011;7060;43.770;4.008;2023-09-19T13:52:43;1.20;;;0.60;;
13973;SDS011;7060;43.770;4.008;2023-09-19T13:55:14;4.18;;;0.68;;
13973;SDS011;7060;43.770;4.008;2023-09-19T13:57:48;1.20;;;0.77;;
13973;SDS011;7060;43.770;4.008;2023-09-19T14:00:21;1.27;;;0.70;;
13973;SDS011;7060;43.770;4.008;2023-09-19T14:02:50;0.80;;;0.70;;
13973;SDS011;7060;43.770;4.008;2023-09-19T14:05:20;1.85;;;0.95;;
13973;SDS011;7060;43.770;4.008;2023-09-19T14:07:49;1.40;;;0.90;;
13973;SDS011;7060;43.770;4.008;2023-09-19T14:10:18;2.28;;;0.90;;
13973;SDS011;7060;43.770;4.008;2023-09-19T14:12:49;1.55;;;0.80;;
13973;SDS011;7060;43.770;4.008;2023-09-19T14:15:18;1.23;;;0.77;;
13973;SDS011;7060;43.770;4.008;2023-09-19T14:17:47;2.35;;;0.63;;
13973;SDS011;7060;43.770;4.008;2023-09-19T14:20:16;1.17;;;0.82;;
13973;SDS011;7060;43.770;4.008;2023-09-19T14:22:45;1.20;;;0.85;;
13973;SDS011;7060;43.770;4.008;2023-09-19T14:25:15;2.72;;;1.00;;
13973;SDS011;7060;43.770;4.008;2023-09-19T14:27:43;1.30;;;0.93;;
13973;SDS011;7060;43.770;4.008;2023-09-19T14:30:16;2.38;;;0.90;;
13973;SDS011;7060;43.770;4.008;2023-09-19T14:32:45;1.13;;;0.75;;
13973;SDS011;7060;43.770;4.008;2023-09-19T14:35:14;1.50;;;0.93;;
13973;SDS011;7060;43.770;4.008;2023-09-19T14:37:43;1.25;;;0.80;;
13973;SDS011;7060;43.770;4.008;2023-09-19T14:40:13;1.27;;;0.80;;
13973;SDS011;7060;43.770;4.008;2023-09-19T14:42:44;1.20;;;0.90;;
13973;SDS011;7060;43.770;4.008;2023-09-19T14:45:18;1.33;;;0.98;;
13973;SDS011;7060;43.770;4.008;2023-09-19T14:47:47;1.05;;;0.82;;
13973;SDS011;7060;43.770;4.008;2023-09-19T14:50:21;1.30;;;0.90;;
13973;SDS011;7060;43.770;4.008;2023-09-19T14:52:50;0.82;;;0.80;;
13973;SDS011;7060;43.770;4.008;2023-09-19T14:55:21;3.20;;;1.00;;
13973;SDS011;7060;43.770;4.008;2023-09-19T14:57:50;0.98;;;0.70;;
13973;SDS011;7060;43.770;4.008;2023-09-19T15:00:21;0.98;;;0.85;;
13973;SDS011;7060;43.770;4.008;2023-09-19T15:02:50;1.70;;;0.82;;
13973;SDS011;7060;43.770;4.008;2023-09-19T15:05:21;1.40;;;1.08;;
13973;SDS011;7060;43.770;4.008;2023-09-19T15:07:50;0.90;;;0.80;;
13973;SDS011;7060;43.770;4.008;2023-09-19T15:10:19;1.95;;;0.85;;
13973;SDS011;7060;43.770;4.008;2023-09-19T15:12:48;2.08;;;1.20;;
13973;SDS011;7060;43.770;4.008;2023-09-19T15:15:17;1.10;;;1.00;;
13973;SDS011;7060;43.770;4.008;2023-09-19T15:17:47;2.13;;;1.20;;
13973;SDS011;7060;43.770;4.008;2023-09-19T15:20:17;1.67;;;1.10;;
13973;SDS011;7060;43.770;4.008;2023-09-19T15:22:45;1.40;;;0.95;;
13973;SDS011;7060;43.770;4.008;2023-09-19T15:25:15;1.98;;;1.38;;
13973;SDS011;7060;43.770;4.008;2023-09-19T15:27:44;1.20;;;0.98;;
13973;SDS011;7060;43.770;4.008;2023-09-19T15:30:13;1.73;;;1.10;;
13973;SDS011;7060;43.770;4.008;2023-09-19T15:32:42;2.63;;;1.13;;
13973;SDS011;7060;43.770;4.008;2023-09-19T15:35:13;3.40;;;1.40;;
13973;SDS011;7060;43.770;4.008;2023-09-19T15:37:44;1.92;;;1.10;;
13973;SDS011;7060;43.770;4.008;2023-09-19T15:40:13;1.80;;;1.30;;
13973;SDS011;7060;43.770;4.008;2023-09-19T15:42:42;3.08;;;1.30;;
13973;SDS011;7060;43.770;4.008;2023-09-19T15:45:11;2.10;;;1.08;;
13973;SDS011;7060;43.770;4.008;2023-09-19T15:47:42;2.03;;;1.00;;
13973;SDS011;7060;43.770;4.008;2023-09-19T15:50:12;2.33;;;1.30;;
13973;SDS011;7060;43.770;4.008;2023-09-19T15:52:42;1.70;;;0.95;;
13973;SDS011;7060;43.770;4.008;2023-09-19T15:55:11;1.90;;;1.00;;
13973;SDS011;7060;43.770;4.008;2023-09-19T15:57:42;1.70;;;1.20;;
13973;SDS011;7060;43.770;4.008;2023-09-19T16:00:12;2.03;;;1.00;;
13973;SDS011;7060;43.770;4.008;2023-09-19T16:02:45;2.47;;;1.48;;
13973;SDS011;7060;43.770;4.008;2023-09-19T16:05:19;2.55;;;1.48;;
13973;SDS011;7060;43.770;4.008;2023-09-19T16:07:48;1.85;;;1.45;;
13973;SDS011;7060;43.770;4.008;2023-09-19T16:10:17;2.13;;;1.08;;
13973;SDS011;7060;43.770;4.008;2023-09-19T16:12:46;2.63;;;1.20;;
13973;SDS011;7060;43.770;4.008;2023-09-19T16:15:15;1.30;;;1.13;;
13973;SDS011;7060;43.770;4.008;2023-09-19T16:17:45;3.13;;;1.35;;
13973;SDS011;7060;43.770;4.008;2023-09-19T16:20:15;2.00;;;1.20;;
13973;SDS011;7060;43.770;4.008;2023-09-19T16:22:46;5.18;;;1.30;;